createdAt,value
2023-04-19T00:02:02.694Z,96945.88
2023-04-19T00:05:12.989Z,96939.58
2023-04-19T00:08:16.353Z,96940.69
2023-04-19T00:11:59.655Z,96945.34
2023-04-19T00:14:29.523Z,96946.14
2023-04-19T00:17:13.702Z,96946.70
2023-04-19T00:23:21.744Z,96949.98
2023-04-19T00:26:03.090Z,96949.14
2023-04-19T00:31:52.182Z,96943.17
2023-04-19T00:34:22.082Z,96930.91
2023-04-19T00:36:52.959Z,96940.70
2023-04-19T00:39:23.177Z,96936.05
2023-04-19T00:41:53.846Z,96936.05
2023-04-19T00:44:23.752Z,96934.67
2023-04-19T00:47:15.775Z,96926.22
2023-04-19T00:50:03.100Z,96917.21
2023-04-19T00:52:33.001Z,96917.21
2023-04-19T00:55:03.028Z,96922.39
2023-04-19T00:57:33.001Z,96919.66
2023-04-19T01:00:21.401Z,96922.67
2023-04-19T01:02:52.658Z,96917.21
2023-04-19T01:05:22.829Z,96923.48
2023-04-19T01:17:20.920Z,96925.41
2023-04-19T01:20:12.443Z,96930.03
2023-04-19T01:25:54.691Z,96924.32
2023-04-19T01:28:24.570Z,96940.14
2023-04-19T01:30:55.999Z,96949.70
2023-04-19T01:33:26.454Z,96940.14
2023-04-19T01:35:56.372Z,96946.97
2023-04-19T01:38:29.519Z,96951.06
2023-04-19T01:41:34.166Z,96953.80
2023-04-19T01:44:55.639Z,96946.97
2023-04-19T01:47:42.061Z,96957.08
2023-04-19T01:50:30.526Z,96957.64
2023-04-19T01:53:16.853Z,96957.64
2023-04-19T01:58:38.068Z,96954.91
2023-04-19T02:01:08.005Z,96955.98
2023-04-19T02:03:38.085Z,96957.64
2023-04-19T02:06:08.635Z,96962.55
2023-04-19T02:08:38.562Z,96967.20
2023-04-19T02:11:18.888Z,96964.18
2023-04-19T02:14:10.524Z,96963.12
2023-04-19T02:16:40.718Z,96963.69
2023-04-19T02:19:11.685Z,96968.59
2023-04-19T02:21:41.774Z,96964.48
2023-04-19T02:24:12.728Z,96966.11
2023-04-19T02:26:43.576Z,96959.03
2023-04-19T02:29:23.869Z,96965.30
2023-04-19T02:34:45.899Z,96958.47
2023-04-19T02:37:17.056Z,96967.48
2023-04-19T02:39:47.117Z,96973.80
2023-04-19T02:42:17.360Z,96983.61
2023-04-19T02:44:47.516Z,96983.34
2023-04-19T02:50:14.284Z,97002.17
2023-04-19T02:52:44.953Z,97003.28
2023-04-19T02:55:16.043Z,96995.09
2023-04-19T02:57:47.254Z,97001.91
2023-04-19T03:00:18.010Z,97001.63
2023-04-19T03:02:48.415Z,97002.72
2023-04-19T03:05:24.492Z,97008.73
2023-04-19T03:10:44.038Z,96998.63
2023-04-19T03:13:16.075Z,97002.47
2023-04-19T03:15:49.881Z,96992.63
2023-04-19T03:21:08.124Z,96988.77
2023-04-19T03:24:15.694Z,96991.54
2023-04-19T03:27:20.256Z,96990.70
2023-04-19T03:29:52.653Z,96989.08
2023-04-19T03:35:48.580Z,96984.17
2023-04-19T03:38:44.873Z,96982.80
2023-04-19T03:41:38.804Z,96979.78
2023-04-19T03:47:42.423Z,96988.53
2023-04-19T03:50:32.496Z,96975.16
2023-04-19T03:56:06.152Z,96986.91
2023-04-19T03:58:35.882Z,96988.83
2023-04-19T04:01:08.616Z,96994.29
2023-04-19T04:03:40.191Z,97005.77
2023-04-19T04:06:10.727Z,97002.48
2023-04-19T04:08:43.321Z,97000.83
2023-04-19T04:12:03.520Z,97011.23
2023-04-19T04:14:49.534Z,97017.22
2023-04-19T04:17:36.771Z,97015.59
2023-04-19T04:20:15.393Z,97012.86
2023-04-19T04:22:49.527Z,97012.86
2023-04-19T04:25:21.207Z,97005.78
2023-04-19T04:27:55.457Z,97012.60
2023-04-19T04:30:27.701Z,97002.49
2023-04-19T04:35:52.897Z,97006.84
2023-04-19T04:48:26.548Z,97000.02
2023-04-19T04:50:56.852Z,96995.12
2023-04-19T04:53:59.408Z,97002.50
2023-04-19T04:56:55.327Z,97003.61
2023-04-19T05:00:39.997Z,96993.50
2023-04-19T05:03:10.134Z,96995.42
2023-04-19T05:06:03.878Z,96988.86
2023-04-19T05:09:17.996Z,96983.95
2023-04-19T05:11:48.297Z,96978.20
2023-04-19T05:21:34.521Z,96967.58
2023-04-19T05:27:15.343Z,96949.81
2023-04-19T05:29:52.080Z,96961.57
2023-04-19T05:36:11.953Z,96968.39
2023-04-19T05:39:05.253Z,96965.41
2023-04-19T05:42:04.059Z,96963.75
2023-04-19T05:44:47.804Z,96956.92
2023-04-19T05:47:18.392Z,96964.05
2023-04-19T05:49:48.932Z,96956.94
2023-04-19T05:52:19.917Z,96952.31
2023-04-19T05:54:49.794Z,96954.76
2023-04-19T05:57:20.909Z,96959.66
2023-04-19T06:03:02.826Z,96960.20
2023-04-19T06:06:02.685Z,96966.78
2023-04-19T06:09:03.614Z,96958.59
2023-04-19T06:12:18.796Z,96955.05
2023-04-19T06:15:13.542Z,96962.41
2023-04-19T06:18:20.222Z,96956.69
2023-04-19T06:21:17.964Z,96958.84
2023-04-19T06:24:28.091Z,96928.04
2023-04-19T06:26:55.336Z,96960.20
2023-04-19T06:29:26.317Z,96951.20
2023-04-19T06:31:56.337Z,96950.13
2023-04-19T06:34:26.380Z,96951.50
2023-04-19T06:36:56.365Z,96949.29
2023-04-19T06:39:26.369Z,96944.38
2023-04-19T06:42:20.056Z,96939.73
2023-04-19T06:45:27.522Z,96942.20
2023-04-19T06:48:17.895Z,96935.94
2023-04-19T06:51:18.871Z,96932.39
2023-04-19T06:54:08.715Z,96920.63
2023-04-19T07:00:37.743Z,96925.58
2023-04-19T07:03:14.354Z,96909.47
2023-04-19T07:06:26.307Z,96889.31
2023-04-19T07:12:16.502Z,96904.00
2023-04-19T07:15:09.140Z,96897.19
2023-04-19T07:27:31.031Z,96877.28
2023-04-19T07:30:19.829Z,96873.19
2023-04-19T07:33:47.492Z,96863.38
2023-04-19T07:51:27.294Z,96851.12
2023-04-19T07:54:54.634Z,96849.47
2023-04-19T07:58:08.105Z,96842.39
2023-04-19T08:00:39.083Z,96833.39
2023-04-19T08:04:05.252Z,96791.17
2023-04-19T08:06:42.033Z,96805.56
2023-04-19T08:09:23.287Z,96812.12
2023-04-19T08:12:36.232Z,96835.31
2023-04-19T08:18:30.546Z,96901.33
2023-04-19T08:30:59.524Z,96829.33
2023-04-19T08:33:59.460Z,96852.78
2023-04-19T08:36:39.387Z,96855.25
2023-04-19T08:39:33.666Z,96835.90
2023-04-19T08:45:44.159Z,96854.44
2023-04-19T08:48:30.266Z,96853.34
2023-04-19T08:51:50.013Z,96851.98
2023-04-19T08:54:32.015Z,96844.34
2023-04-19T08:57:57.431Z,96856.37
2023-04-19T09:00:41.378Z,96856.64
2023-04-19T09:03:58.427Z,96879.27
2023-04-19T09:06:49.614Z,96873.00
2023-04-19T09:12:47.879Z,96883.10
2023-04-19T09:15:36.462Z,96873.86
2023-04-19T09:18:56.310Z,96888.30
2023-04-19T09:25:22.680Z,96879.02
2023-04-19T09:27:50.535Z,96898.66
2023-04-19T09:31:06.740Z,96901.94
2023-04-19T09:33:46.850Z,96900.58
2023-04-19T09:52:03.646Z,96906.84
2023-04-19T09:57:43.703Z,96894.89
2023-04-19T10:01:16.759Z,96906.59
2023-04-19T10:07:28.525Z,96902.52
2023-04-19T10:10:02.332Z,96885.30
2023-04-19T10:16:19.696Z,96885.59
2023-04-19T10:22:02.259Z,96881.50
2023-04-19T10:25:03.027Z,96892.16
2023-04-19T10:28:06.923Z,96893.52
2023-04-19T10:31:12.572Z,96891.31
2023-04-19T10:33:49.581Z,96888.88
2023-04-19T10:36:54.217Z,96892.16
2023-04-19T10:40:10.339Z,96892.16
2023-04-19T10:43:15.284Z,96901.42
2023-04-19T10:46:22.280Z,96897.88
2023-04-19T10:49:02.751Z,96905.80
2023-04-19T10:52:03.720Z,96906.87
2023-04-19T10:58:19.109Z,96909.59
2023-04-19T11:01:25.483Z,96912.07
2023-04-19T11:07:12.734Z,96905.25
2023-04-19T11:10:02.325Z,96907.43
2023-04-19T11:13:25.419Z,96906.63
2023-04-19T11:16:05.154Z,96906.87
2023-04-19T11:18:57.766Z,96907.72
2023-04-19T11:22:02.586Z,96910.97
2023-04-19T11:25:22.104Z,96907.98
2023-04-19T11:28:09.028Z,96911.27
2023-04-19T11:31:04.887Z,96908.51
2023-04-19T11:34:20.413Z,96912.08
2023-04-19T11:37:08.013Z,96919.97
2023-04-19T11:39:57.368Z,96915.06
2023-04-19T11:42:39.428Z,96923.24
2023-04-19T11:45:15.927Z,96929.77
2023-04-19T11:47:52.523Z,96936.59
2023-04-19T11:50:41.011Z,96927.59
2023-04-19T11:53:24.367Z,96940.67
2023-04-19T11:55:59.208Z,96933.59
2023-04-19T11:58:34.286Z,96926.78
2023-04-19T12:01:14.555Z,96937.14
2023-04-19T12:03:49.563Z,96934.67
2023-04-19T12:06:23.136Z,96933.59
2023-04-19T12:08:53.623Z,96943.40
2023-04-19T12:11:28.647Z,96938.50
2023-04-19T12:14:12.099Z,96938.23
2023-04-19T12:16:42.581Z,96950.22
2023-04-19T12:19:29.688Z,96946.42
2023-04-19T12:22:44.411Z,96945.58
2023-04-19T12:25:55.941Z,96946.94
2023-04-19T12:28:26.205Z,96948.30
2023-04-19T12:31:11.396Z,96952.69
2023-04-19T12:37:13.011Z,96953.23
2023-04-19T12:40:18.433Z,96961.97
2023-04-19T12:43:24.551Z,96957.03
2023-04-19T12:46:16.087Z,96956.22
2023-04-19T12:48:56.193Z,96962.48
2023-04-19T12:51:26.154Z,96961.13
2023-04-19T12:53:57.423Z,96969.04
2023-04-19T12:56:28.122Z,96961.67
2023-04-19T12:58:58.597Z,96969.04
2023-04-19T13:01:37.100Z,96974.50
2023-04-19T13:07:11.566Z,96984.85
2023-04-19T13:10:18.501Z,96982.13
2023-04-19T13:13:26.816Z,96991.66
2023-04-19T13:16:29.966Z,96998.48
2023-04-19T13:22:17.407Z,96996.56
2023-04-19T13:25:11.140Z,97017.30
2023-04-19T13:30:38.067Z,97019.48
2023-04-19T13:33:10.069Z,97012.92
2023-04-19T13:35:40.068Z,97018.11
2023-04-19T13:38:10.067Z,97019.48
2023-04-19T13:40:40.232Z,97026.03
2023-04-19T13:43:54.906Z,97022.46
2023-04-19T13:46:19.396Z,97021.66
2023-04-19T13:49:31.737Z,97020.84
2023-04-19T13:55:19.540Z,97035.55
2023-04-19T13:58:23.099Z,97028.20
2023-04-19T14:10:19.271Z,97032.00
2023-04-19T14:16:25.995Z,97028.47
2023-04-19T14:22:30.216Z,97023.83
2023-04-19T14:25:40.801Z,97023.83
2023-04-19T14:28:24.081Z,97026.55
2023-04-19T14:31:19.023Z,97029.28
2023-04-19T14:37:17.704Z,97012.92
2023-04-19T14:41:30.012Z,97012.66
2023-04-19T14:42:24.048Z,97016.49
2023-04-19T14:44:54.297Z,97009.38
2023-04-19T14:47:24.236Z,96999.84
2023-04-19T14:49:54.205Z,97005.30
2023-04-19T14:52:55.942Z,97009.94
2023-04-19T14:56:11.637Z,97014.03
2023-04-19T14:58:42.552Z,97005.04
2023-04-19T15:01:52.027Z,97014.03
2023-04-19T15:04:41.868Z,96997.67
2023-04-19T15:07:24.644Z,97004.75
2023-04-19T15:13:37.662Z,97004.75
2023-04-19T15:16:30.226Z,96997.13
2023-04-19T15:24:52.392Z,96992.48
2023-04-19T15:27:22.401Z,96988.69
2023-04-19T15:29:53.779Z,96993.59
2023-04-19T15:32:25.130Z,96984.05
2023-04-19T15:34:56.157Z,96992.22
2023-04-19T15:37:39.141Z,96984.86
2023-04-19T15:40:29.474Z,96977.78
2023-04-19T15:43:33.651Z,96984.86
2023-04-19T15:46:17.241Z,96978.84
2023-04-19T15:48:48.768Z,96978.84
2023-04-19T15:51:19.323Z,96978.30
2023-04-19T15:53:50.437Z,96974.76
2023-04-19T15:56:21.977Z,96978.59
2023-04-19T15:58:52.519Z,96971.77
2023-04-19T16:04:30.312Z,96982.13
2023-04-19T16:09:51.564Z,96988.95
2023-04-19T16:12:22.811Z,96992.23
2023-04-19T16:14:54.148Z,96985.96
2023-04-19T16:17:26.045Z,96987.58
2023-04-19T16:23:24.436Z,96985.70
2023-04-19T16:25:57.592Z,96981.61
2023-04-19T16:28:49.439Z,96981.06
2023-04-19T16:32:07.080Z,96979.14
2023-04-19T16:35:07.187Z,96971.80
2023-04-19T16:41:26.105Z,96977.78
2023-04-19T16:44:09.417Z,96978.89
2023-04-19T16:46:53.181Z,96976.71
2023-04-19T16:52:42.723Z,96972.33
2023-04-19T16:56:07.455Z,96962.78
2023-04-19T16:57:40.440Z,96961.42
2023-04-19T17:00:11.651Z,96955.16
2023-04-19T17:02:41.813Z,96950.51
2023-04-19T17:05:26.277Z,96945.05
2023-04-19T17:08:27.241Z,96945.34
2023-04-19T17:14:47.523Z,96950.77
2023-04-19T17:17:20.389Z,96951.31
2023-04-19T17:20:11.977Z,96946.41
2023-04-19T17:22:52.808Z,96947.78
2023-04-19T17:25:44.010Z,96956.52
2023-04-19T17:28:07.237Z,96942.06
2023-04-19T17:30:37.367Z,96945.86
2023-04-19T17:33:43.616Z,96946.67
2023-04-19T17:39:02.748Z,96945.86
2023-04-19T17:41:50.658Z,96944.78
2023-04-19T17:47:55.780Z,96934.94
2023-04-19T17:50:39.343Z,96933.03
2023-04-19T17:53:57.510Z,96936.05
2023-04-19T17:56:17.043Z,96939.30
2023-04-19T17:59:33.958Z,96933.31
2023-04-19T18:02:29.672Z,96927.86
2023-04-19T18:05:39.235Z,96924.58
2023-04-19T18:08:33.103Z,96921.30
2023-04-19T18:11:17.573Z,96911.20
2023-04-19T18:14:22.955Z,96917.75
2023-04-19T18:17:24.855Z,96908.47
2023-04-19T18:29:43.763Z,96913.09
2023-04-19T18:32:30.944Z,96915.02
2023-04-19T18:38:32.890Z,96907.34
2023-04-19T18:41:05.841Z,96904.62
2023-04-19T18:47:37.571Z,96902.17
2023-04-19T18:51:01.570Z,96905.16
2023-04-19T18:53:35.615Z,96897.23
2023-04-19T18:57:19.082Z,96905.16
2023-04-19T18:59:41.556Z,96895.61
2023-04-19T19:03:38.193Z,96899.14
2023-04-19T19:05:44.382Z,96893.42
2023-04-19T19:08:53.005Z,96892.31
2023-04-19T19:14:49.038Z,96888.75
2023-04-19T19:17:35.852Z,96896.66
2023-04-19T19:20:38.882Z,96897.20
2023-04-19T19:27:05.371Z,96901.58
2023-04-19T19:32:34.811Z,96875.08
2023-04-19T19:45:00.035Z,96876.70
2023-04-19T19:48:01.258Z,96875.08
2023-04-19T19:57:08.126Z,96860.01
2023-04-19T20:02:55.981Z,96840.66
2023-04-19T20:09:04.117Z,96853.20
2023-04-19T20:12:13.565Z,96837.11
2023-04-19T20:14:44.196Z,96841.19
2023-04-19T20:24:07.991Z,96828.33
2023-04-19T20:27:19.943Z,96836.50
2023-04-19T20:30:15.183Z,96830.17
2023-04-19T20:38:53.934Z,96821.38
2023-04-19T20:41:42.918Z,96815.43
2023-04-19T20:54:22.195Z,96793.55
2023-04-19T20:57:32.349Z,96792.98
2023-04-19T21:00:23.774Z,96785.06
2023-04-19T21:02:50.353Z,96784.23
2023-04-19T21:06:02.663Z,96782.59
2023-04-19T21:11:58.386Z,96769.17
2023-04-19T21:17:53.273Z,96782.00
2023-04-19T21:20:35.958Z,96785.01
2023-04-19T21:35:37.618Z,96795.59
2023-04-19T21:38:45.338Z,96803.53
2023-04-19T21:44:46.264Z,96768.06
2023-04-19T21:50:34.441Z,96781.36
2023-04-19T21:55:52.709Z,96784.34
2023-04-19T21:58:22.819Z,96788.45
2023-04-19T22:03:56.149Z,96786.20
2023-04-19T22:06:26.118Z,96781.84
2023-04-19T22:08:55.990Z,96784.02
2023-04-19T22:11:38.974Z,96775.80
2023-04-19T22:17:55.045Z,96762.45
2023-04-19T22:21:19.589Z,96746.03
2023-04-19T22:30:07.549Z,96725.47
2023-04-19T22:32:44.729Z,96731.56
2023-04-19T22:36:09.565Z,96737.84
2023-04-19T22:45:14.459Z,96727.16
2023-04-19T22:51:10.083Z,96716.23
2023-04-19T22:54:22.751Z,96751.19
2023-04-19T22:57:20.101Z,96746.82
2023-04-19T23:00:16.295Z,96730.20
2023-04-19T23:02:48.095Z,96729.91
2023-04-19T23:06:02.158Z,96731.36
2023-04-19T23:12:01.838Z,96722.50
2023-04-19T23:18:26.176Z,96717.03
2023-04-19T23:21:49.735Z,96724.16
2023-04-19T23:30:21.002Z,96752.23
2023-04-19T23:33:07.854Z,96792.97
2023-04-19T23:39:06.743Z,96747.56
2023-04-19T23:42:25.462Z,96734.75
2023-04-19T23:48:08.154Z,96730.88
2023-04-19T23:51:11.561Z,96753.09
2023-04-19T23:54:07.229Z,96767.55
